Willsboro, NY (12996)

12:07 AM EDT on April 27, 2015 (GMT -0400)
Harbor Crossing | | Change Station
CLOSE
Current Station
Personal Weather Station
Location: Shelburne, VT
Elevation: 125 ft
Nearby Weather Stations

Elev 125 ft 44.38 °N, 73.24 °W | Updated 50 seconds ago

Overcast
Overcast
42.6 °F
Feels Like 43 °F
N
0.0
Wind Variable Wind from WNW
Gusts 2.0 mph

Today
High -- | Low -- °F
--% Chance of Precip.
Yesterday
High -- | Low -- °F
Precip. -- in
5:50 AM 7:52 PM
First Quarter, 61% visible
Pressure 29.68 in
Visibility 10.0 miles
Clouds Scattered Clouds 2300 ft
Overcast 3500 ft
Windchill 43 °F
Dew Point 40 °F
Humidity 90%
Rainfall 0.00 in
Snow Depth Not available.
UV 0 out of 12
Pollen 9.30 out of 12
Air Quality Not available.
Flu Activity Widespread
METAR KBTV 270354Z 31005KT 10SM SCT023 OVC035 08/03 A2967 RMK AO2 RAB44E53 SLP050 P0000 T00780033

More Conditions Fewer Conditions

Pressure 29.68 in
Visibility 10.0 miles
Clouds Scattered Clouds 2300 ft
Overcast 3500 ft
Windchill 43 °F
Dew Point 40 °F
Humidity 90%
Rainfall 0.00 in
Snow Depth Not available.
UV 0 out of 12
Pollen 9.30 out of 12
Air Quality Not available.
Flu Activity Widespread
METAR KBTV 270354Z 31005KT 10SM SCT023 OVC035 08/03 A2967 RMK AO2 RAB44E53 SLP050 P0000 T00780033

More Conditions Fewer Conditions

The full scope of the disaster following a powerful 7.8-magnitude earthquake in Nepal may not come into view for days, but global charities are already sending emergency aid. Click to see how you can help.

10-Day Weather Forecast

Almanac

Astronomy

Apr. 27, 2015 Rise Set
Actual Time
Civil Twilight
Nautical Twilight
Astronomical Twilight
Moon
Length of Visible Light
Length of Day
Tomorrow will be .
, % of the Moon is Illuminated

Today's Extremes

State Highs State Lows

Community

WunderPhotos

Upload Photos

1,817,259 photos uploaded!

WunderBlogs® & News

Nearby

Air Quality

  Air Quality AQ Index Pollutant
Not available.

Snow Depth

Station Depth Elevation

Earthquake Activity

City Distance Mag. Time & Date
Minimum magnitude displayed is 2.5.

Coastal Water Temperatures

Place Temperature

Stations

Nearby Weather Stations

Station Location Temp. Windchill Dew Point Humidity Wind Precip. Elev Updated Type